ěÝzenÝ letovÚho provozu ╚eskÚ republiky
Letiste: LKBC Aktualizace: 12.07.2024 22:29:39  UTC
 METAR LKBC 12.07. 22:30 ...
METAR LKBC 122230Z AUTO VRB01KT 9999 FEW038 OVC084 20/18 Q1011=